This is the latest recevied weather packets stored in our database for station/object 9W2CEW-1. If no packets are shown the sender has not sent any weather packets the latest 10 day(s).
| Time | Temp. | Humidity | Pressure | Rain* | Wind** | Luminosity | Snow |
|---|---|---|---|---|---|---|---|
| 1777609141 | 37.78° C | 39% | 1004.8 hPa | - | - | - | - |
| 1777608303 | 40.56° C | 39% | 1004.8 hPa | - | - | - | - |
| 1777608241 | 40.56° C | 39% | 1004.8 hPa | - | - | - | - |
| 1777607341 | 40.56° C | 35% | 1005.1 hPa | - | - | - | - |
| 1777606532 | 40.56° C | 37% | 1005.2 hPa | - | - | - | - |
| 1777606441 | 40.56° C | 37% | 1005.2 hPa | - | - | - | - |
| 1777605541 | 40° C | 38% | 1005.3 hPa | - | - | - | - |
| 1777604641 | 41.11° C | 36% | 1005.5 hPa | - | - | - | - |
| 1777603741 | 38.89° C | 40% | 1005.5 hPa | - | - | - | - |
| 1777602841 | 40° C | 43% | 1005.4 hPa | - | - | - | - |
| 1777602035 | 36.11° C | 49% | 1005.4 hPa | - | - | - | - |
| 1777601941 | 36.11° C | 49% | 1005.4 hPa | - | - | - | - |
| 1777583940 | 33.33° C | 65% | 1002.6 hPa | - | - | - | - |
| 1777581240 | 32.22° C | 69% | 1003 hPa | - | - | - | - |
| 1777580400 | 33.33° C | 65% | 1002.9 hPa | - | - | - | - |
| 1777580340 | 33.33° C | 65% | 1002.9 hPa | - | - | - | - |
| 1777579537 | 32.78° C | 65% | 1003.2 hPa | - | - | - | - |
| 1777579444 | 32.78° C | 65% | 1003.2 hPa | - | - | - | - |
| 1777577692 | 33.89° C | 63% | 1003.6 hPa | - | - | - | - |
| 1777576743 | 33.89° C | 64% | 1003.8 hPa | - | - | - | - |
| 1777574945 | 33.89° C | 62% | 1003.8 hPa | - | - | - | - |
| 1777572243 | 32.78° C | 66% | 1004.5 hPa | - | - | - | - |
| 1777571343 | 33.33° C | 64% | 1004.9 hPa | - | - | - | - |
| 1777569543 | 33.33° C | 66% | 1005.2 hPa | - | - | - | - |
| 1777565942 | 33.89° C | 66% | 1005.2 hPa | - | - | - | - |
* Rain since midnight (hover to see other rain measurements)
** Current wind speed in m/s (hover to see current wind gust speed)